createdAt,value
2018-05-19T00:00:07.314Z,0
2018-05-19T00:00:33.550Z,0
2018-05-19T00:00:59.756Z,0
2018-05-19T00:01:25.936Z,0
2018-05-19T00:01:52.012Z,0
2018-05-19T00:02:18.174Z,0
2018-05-19T00:02:44.359Z,0
2018-05-19T00:03:10.530Z,0
2018-05-19T00:03:36.664Z,0
2018-05-19T00:04:02.885Z,0
2018-05-19T00:04:29.011Z,0
2018-05-19T00:04:55.180Z,0
2018-05-19T00:05:21.317Z,0
2018-05-19T00:05:47.457Z,0
2018-05-19T00:06:13.621Z,0
2018-05-19T00:06:39.772Z,0
2018-05-19T00:07:05.928Z,0
2018-05-19T00:07:32.074Z,0
2018-05-19T00:07:58.296Z,0
2018-05-19T00:08:24.486Z,0
2018-05-19T00:08:50.620Z,0
2018-05-19T00:09:16.776Z,0
2018-05-19T00:09:42.945Z,0
2018-05-19T00:10:09.116Z,0
2018-05-19T00:10:35.299Z,0
2018-05-19T00:11:01.464Z,0
2018-05-19T00:11:27.613Z,0
2018-05-19T00:11:53.798Z,0
2018-05-19T00:12:19.966Z,0
2018-05-19T00:12:46.090Z,0
2018-05-19T00:13:12.302Z,0
2018-05-19T00:13:38.436Z,0
2018-05-19T00:14:04.614Z,0
2018-05-19T00:14:30.758Z,0
2018-05-19T00:14:56.910Z,0
2018-05-19T00:15:23.060Z,0
2018-05-19T00:15:49.255Z,0
2018-05-19T00:16:15.376Z,0
2018-05-19T00:16:41.545Z,0
2018-05-19T00:17:07.706Z,0
2018-05-19T00:17:33.864Z,0
2018-05-19T00:18:00.058Z,0
2018-05-19T00:18:26.227Z,0
2018-05-19T00:18:52.435Z,0
2018-05-19T00:19:18.588Z,0
2018-05-19T00:19:44.819Z,0
2018-05-19T00:20:10.975Z,0
2018-05-19T00:20:37.132Z,0
2018-05-19T00:21:03.275Z,0
2018-05-19T00:21:29.420Z,0
2018-05-19T00:21:55.610Z,0
2018-05-19T00:22:21.771Z,0
2018-05-19T00:22:47.941Z,0
2018-05-19T00:23:14.093Z,0
2018-05-19T00:23:40.257Z,0
2018-05-19T00:24:06.395Z,0
2018-05-19T00:24:32.570Z,0
2018-05-19T00:24:58.715Z,0
2018-05-19T00:25:24.862Z,0
2018-05-19T00:25:51.031Z,0
2018-05-19T00:26:17.220Z,0
2018-05-19T00:26:43.391Z,0
2018-05-19T00:27:09.563Z,0
2018-05-19T00:27:35.749Z,0
2018-05-19T00:28:01.888Z,0
2018-05-19T00:28:28.069Z,0
2018-05-19T00:28:54.250Z,0
2018-05-19T00:29:20.410Z,0
2018-05-19T00:29:46.601Z,0
2018-05-19T00:30:12.797Z,0
2018-05-19T00:30:39.004Z,0
2018-05-19T00:31:05.175Z,0
2018-05-19T00:31:31.302Z,0
2018-05-19T00:31:57.459Z,0
2018-05-19T00:32:23.598Z,0
2018-05-19T00:32:49.744Z,0
2018-05-19T00:33:15.900Z,0
2018-05-19T00:33:42.065Z,0
2018-05-19T00:34:08.207Z,0
2018-05-19T00:34:34.373Z,0
2018-05-19T00:35:00.574Z,0
2018-05-19T00:35:26.770Z,0
2018-05-19T00:35:52.944Z,0
2018-05-19T00:36:19.095Z,0
2018-05-19T00:36:45.281Z,0
2018-05-19T00:37:11.431Z,0
2018-05-19T00:37:37.566Z,0
2018-05-19T00:38:03.722Z,0
2018-05-19T00:38:29.867Z,0
2018-05-19T00:38:56.049Z,0
2018-05-19T00:39:22.177Z,0
2018-05-19T00:39:48.308Z,0
2018-05-19T00:40:14.457Z,0
2018-05-19T00:40:40.635Z,0
2018-05-19T00:41:06.835Z,0
2018-05-19T00:41:32.987Z,0
2018-05-19T00:41:59.156Z,0
2018-05-19T00:42:25.327Z,0
2018-05-19T00:42:51.456Z,0
2018-05-19T00:43:17.643Z,0
2018-05-19T00:43:43.788Z,0
2018-05-19T00:44:09.941Z,0
2018-05-19T00:44:36.087Z,0
2018-05-19T00:45:02.242Z,0
2018-05-19T00:45:28.406Z,0
2018-05-19T00:45:54.567Z,0
2018-05-19T00:46:20.767Z,0
2018-05-19T00:46:46.938Z,0
2018-05-19T00:47:13.088Z,0
2018-05-19T00:47:39.250Z,0
2018-05-19T00:48:05.391Z,0
2018-05-19T00:48:31.550Z,0
2018-05-19T00:48:57.691Z,0
2018-05-19T00:49:23.828Z,0
2018-05-19T00:49:49.995Z,0
2018-05-19T00:50:16.159Z,0
2018-05-19T00:50:42.294Z,0
2018-05-19T00:51:08.429Z,0
2018-05-19T00:51:34.585Z,0
2018-05-19T00:52:00.725Z,0
2018-05-19T00:52:26.864Z,0
2018-05-19T00:52:53.001Z,0
2018-05-19T00:53:19.141Z,0
2018-05-19T00:53:45.307Z,0
2018-05-19T00:54:11.441Z,0
2018-05-19T00:54:37.599Z,0
2018-05-19T00:55:03.752Z,0
2018-05-19T00:55:29.925Z,0
2018-05-19T00:55:56.052Z,0
2018-05-19T00:56:22.198Z,0
2018-05-19T00:56:48.329Z,0
2018-05-19T00:57:14.492Z,0
2018-05-19T00:57:40.622Z,0
2018-05-19T00:58:06.762Z,0
2018-05-19T00:58:32.906Z,0
2018-05-19T00:58:59.045Z,0
2018-05-19T00:59:25.178Z,0
2018-05-19T00:59:51.314Z,0
2018-05-19T01:00:17.458Z,0
2018-05-19T01:00:43.617Z,0
2018-05-19T01:01:09.756Z,0
2018-05-19T01:01:35.892Z,0
2018-05-19T01:02:02.033Z,0
2018-05-19T01:02:28.169Z,0
2018-05-19T01:02:54.311Z,0
2018-05-19T01:03:20.445Z,0
2018-05-19T01:03:46.585Z,0
2018-05-19T01:04:12.720Z,0
2018-05-19T01:04:38.855Z,0
2018-05-19T01:05:04.992Z,0
2018-05-19T01:05:31.149Z,0
2018-05-19T01:05:57.317Z,0
2018-05-19T01:06:23.484Z,0
2018-05-19T01:06:49.612Z,0
2018-05-19T01:07:15.779Z,0
2018-05-19T01:07:41.941Z,0
2018-05-19T01:08:08.105Z,0
2018-05-19T01:08:34.252Z,0
2018-05-19T01:09:00.387Z,0
2018-05-19T01:09:26.959Z,0
2018-05-19T01:09:53.092Z,0
2018-05-19T01:10:19.232Z,0
2018-05-19T01:10:45.371Z,0
2018-05-19T01:11:11.518Z,0
2018-05-19T01:11:37.695Z,0
2018-05-19T01:12:03.855Z,0
2018-05-19T01:12:30.011Z,0
2018-05-19T01:12:56.173Z,0
2018-05-19T01:13:22.366Z,0
2018-05-19T01:13:48.508Z,0
2018-05-19T01:14:14.650Z,0
2018-05-19T01:14:40.789Z,0
2018-05-19T01:15:06.944Z,0
2018-05-19T01:15:33.079Z,0
2018-05-19T01:15:59.220Z,0
2018-05-19T01:16:25.361Z,0
2018-05-19T01:16:51.498Z,0
2018-05-19T01:17:17.663Z,0
2018-05-19T01:17:43.792Z,0
2018-05-19T01:18:09.936Z,0
2018-05-19T01:18:36.089Z,0
2018-05-19T01:19:02.245Z,0
2018-05-19T01:19:28.384Z,0
2018-05-19T01:19:54.526Z,0
2018-05-19T01:20:20.661Z,0
2018-05-19T01:20:46.814Z,0
2018-05-19T01:21:12.960Z,0
2018-05-19T01:21:39.095Z,0
2018-05-19T01:22:05.263Z,0
2018-05-19T01:22:31.425Z,0
2018-05-19T01:22:57.557Z,0
2018-05-19T01:23:23.697Z,0
2018-05-19T01:23:49.838Z,0
2018-05-19T01:24:15.975Z,0
2018-05-19T01:24:42.141Z,0
2018-05-19T01:25:08.266Z,0
2018-05-19T01:25:34.434Z,0
2018-05-19T01:26:00.568Z,0
2018-05-19T01:26:26.713Z,0
2018-05-19T01:26:52.853Z,0
2018-05-19T01:27:18.987Z,0
2018-05-19T01:27:45.127Z,0
2018-05-19T01:28:11.270Z,0
2018-05-19T01:28:37.431Z,0
2018-05-19T01:29:03.569Z,0
2018-05-19T01:29:29.708Z,0
2018-05-19T01:29:55.939Z,0
2018-05-19T01:30:22.137Z,0
2018-05-19T01:30:48.233Z,0
2018-05-19T01:31:14.399Z,0
2018-05-19T01:31:40.539Z,0
2018-05-19T01:32:06.668Z,0
2018-05-19T01:32:32.812Z,0
2018-05-19T01:32:58.970Z,0
2018-05-19T01:33:25.141Z,0
2018-05-19T01:33:51.282Z,0
2018-05-19T01:34:17.442Z,0
2018-05-19T01:34:43.578Z,0
2018-05-19T01:35:09.744Z,0
2018-05-19T01:35:35.874Z,0
2018-05-19T01:36:02.020Z,0
2018-05-19T01:36:28.153Z,0
2018-05-19T01:36:54.350Z,0
2018-05-19T01:37:20.449Z,0
2018-05-19T01:37:46.587Z,0
2018-05-19T01:38:12.724Z,0
2018-05-19T01:38:38.860Z,0
2018-05-19T01:39:05.001Z,0
2018-05-19T01:39:31.132Z,0
2018-05-19T01:39:57.277Z,0
2018-05-19T01:40:23.419Z,0
2018-05-19T01:40:49.553Z,0
2018-05-19T01:41:15.698Z,0
2018-05-19T01:41:41.884Z,0
2018-05-19T01:42:08.045Z,0
2018-05-19T01:42:34.183Z,0
2018-05-19T01:43:00.323Z,0
2018-05-19T01:43:26.467Z,0
2018-05-19T01:43:52.604Z,0
2018-05-19T01:44:18.744Z,0
2018-05-19T01:44:44.883Z,0
2018-05-19T01:45:11.017Z,0
2018-05-19T01:45:37.160Z,0
2018-05-19T01:46:03.295Z,0
2018-05-19T01:46:29.476Z,0
2018-05-19T01:46:55.620Z,0
2018-05-19T01:47:21.758Z,0
2018-05-19T01:47:47.896Z,0
2018-05-19T01:48:14.037Z,0
2018-05-19T01:48:40.173Z,0
2018-05-19T01:49:06.309Z,0
2018-05-19T01:49:32.473Z,0
2018-05-19T01:49:58.604Z,0
2018-05-19T01:50:24.776Z,0
2018-05-19T01:50:50.907Z,0
2018-05-19T01:51:17.053Z,0
2018-05-19T01:51:43.227Z,0
2018-05-19T01:52:09.370Z,0
2018-05-19T01:52:35.505Z,0
2018-05-19T01:53:01.642Z,0
2018-05-19T01:53:27.779Z,0
2018-05-19T01:53:53.916Z,0
2018-05-19T01:54:20.051Z,0
2018-05-19T01:54:46.190Z,0
2018-05-19T01:55:12.323Z,0
2018-05-19T01:55:38.464Z,0
2018-05-19T01:56:04.607Z,0
2018-05-19T01:56:30.734Z,0
2018-05-19T01:56:56.882Z,0
2018-05-19T01:57:23.014Z,0
2018-05-19T01:57:49.147Z,0
2018-05-19T01:58:15.278Z,0
2018-05-19T01:58:41.422Z,0
2018-05-19T01:59:07.554Z,0
2018-05-19T01:59:33.694Z,0
2018-05-19T01:59:59.853Z,0
2018-05-19T02:00:25.986Z,0
2018-05-19T02:00:52.128Z,0
2018-05-19T02:01:18.265Z,0
2018-05-19T02:01:44.397Z,0
2018-05-19T02:02:10.530Z,0
2018-05-19T02:02:36.673Z,0
2018-05-19T02:03:02.833Z,0
2018-05-19T02:03:28.965Z,0
2018-05-19T02:03:55.109Z,0
2018-05-19T02:04:21.267Z,0
2018-05-19T02:04:47.408Z,0
2018-05-19T02:05:13.551Z,0
2018-05-19T02:05:39.687Z,0
2018-05-19T02:06:05.822Z,0
2018-05-19T02:06:31.962Z,0
2018-05-19T02:06:58.095Z,0
2018-05-19T02:07:24.244Z,0
2018-05-19T02:07:50.389Z,0
2018-05-19T02:08:16.523Z,0
2018-05-19T02:08:42.690Z,0
2018-05-19T02:09:08.835Z,0
2018-05-19T02:09:34.996Z,0
2018-05-19T02:10:01.131Z,0
2018-05-19T02:10:27.270Z,0
2018-05-19T02:10:53.408Z,0
2018-05-19T02:11:19.546Z,0
2018-05-19T02:11:45.686Z,0
2018-05-19T02:12:11.827Z,0
2018-05-19T02:12:37.986Z,0
2018-05-19T02:13:04.121Z,0
2018-05-19T02:13:30.260Z,0
2018-05-19T02:13:56.400Z,0
2018-05-19T02:14:22.538Z,0
2018-05-19T02:14:48.674Z,0
2018-05-19T02:15:14.811Z,0
2018-05-19T02:15:40.948Z,0
2018-05-19T02:16:07.085Z,0
2018-05-19T02:16:33.224Z,0
2018-05-19T02:16:59.369Z,0
2018-05-19T02:17:25.501Z,0
2018-05-19T02:17:51.646Z,0
2018-05-19T02:18:17.779Z,0
2018-05-19T02:18:43.919Z,0
2018-05-19T02:19:10.076Z,0
2018-05-19T02:19:36.239Z,0
2018-05-19T02:20:02.395Z,0
2018-05-19T02:20:28.564Z,0
2018-05-19T02:20:54.709Z,0
2018-05-19T02:21:20.855Z,0
2018-05-19T02:21:47.007Z,0
2018-05-19T02:22:13.141Z,0
2018-05-19T02:22:39.276Z,0
2018-05-19T02:23:05.421Z,0
2018-05-19T02:23:31.555Z,0
2018-05-19T02:23:57.696Z,0
2018-05-19T02:24:23.826Z,0
2018-05-19T02:24:49.959Z,0
2018-05-19T02:25:16.101Z,0
2018-05-19T02:25:42.256Z,0
2018-05-19T02:26:08.385Z,0
2018-05-19T02:26:34.522Z,0
2018-05-19T02:27:00.655Z,0
2018-05-19T02:27:26.800Z,0
2018-05-19T02:27:52.935Z,0
2018-05-19T02:28:19.071Z,0
2018-05-19T02:28:45.212Z,0
2018-05-19T02:29:11.372Z,0
2018-05-19T02:29:37.567Z,0
2018-05-19T02:30:03.731Z,0
2018-05-19T02:30:29.868Z,0
2018-05-19T02:30:56.023Z,0
2018-05-19T02:31:22.186Z,0
2018-05-19T02:31:48.342Z,0
2018-05-19T02:32:14.476Z,0
2018-05-19T02:32:40.611Z,0
2018-05-19T02:33:06.748Z,0
2018-05-19T02:33:32.911Z,0
2018-05-19T02:33:59.054Z,0
2018-05-19T02:34:25.191Z,0
2018-05-19T02:34:51.386Z,0
2018-05-19T02:35:17.519Z,0
2018-05-19T02:35:43.667Z,0
2018-05-19T02:36:09.853Z,0
2018-05-19T02:36:35.994Z,0
2018-05-19T02:37:02.158Z,0
2018-05-19T02:37:28.346Z,0
2018-05-19T02:37:54.487Z,0
2018-05-19T02:38:20.620Z,0
2018-05-19T02:38:46.786Z,0
2018-05-19T02:39:12.919Z,0
2018-05-19T02:39:39.052Z,0
2018-05-19T02:40:05.213Z,0
2018-05-19T02:40:31.351Z,0
2018-05-19T02:40:57.518Z,0
2018-05-19T02:41:23.657Z,0
2018-05-19T02:41:49.797Z,0
2018-05-19T02:42:15.974Z,0
2018-05-19T02:42:42.138Z,0
2018-05-19T02:43:08.324Z,0
2018-05-19T02:43:34.465Z,0
2018-05-19T02:44:00.622Z,0
2018-05-19T02:44:26.786Z,0
2018-05-19T02:44:52.917Z,0
2018-05-19T02:45:19.056Z,0
2018-05-19T02:45:45.248Z,0
2018-05-19T02:46:11.381Z,0
2018-05-19T02:46:37.543Z,0
2018-05-19T02:47:03.680Z,0
2018-05-19T02:47:29.835Z,0
2018-05-19T02:47:55.974Z,4
2018-05-19T02:48:22.167Z,4
2018-05-19T02:48:48.402Z,4
2018-05-19T02:49:14.482Z,4
2018-05-19T02:49:40.641Z,4
2018-05-19T02:50:06.818Z,4
2018-05-19T02:50:32.972Z,4
2018-05-19T02:50:59.155Z,4
2018-05-19T02:51:25.318Z,0
2018-05-19T02:51:51.458Z,0
2018-05-19T02:52:17.597Z,0
2018-05-19T02:52:43.749Z,4
2018-05-19T02:53:09.913Z,4
2018-05-19T02:53:36.058Z,4
2018-05-19T02:54:02.245Z,4
2018-05-19T02:54:28.408Z,4
2018-05-19T02:54:54.577Z,4
2018-05-19T02:55:20.733Z,8
2018-05-19T02:55:46.875Z,4
2018-05-19T02:56:13.035Z,4
2018-05-19T02:56:39.197Z,4
2018-05-19T02:57:05.361Z,8
2018-05-19T02:57:31.569Z,8
2018-05-19T02:57:57.704Z,4
2018-05-19T02:58:23.848Z,4
2018-05-19T02:58:50.008Z,8
2018-05-19T02:59:16.168Z,8
2018-05-19T02:59:42.325Z,12
2018-05-19T03:00:08.466Z,8
2018-05-19T03:00:34.621Z,8
2018-05-19T03:01:00.786Z,12
2018-05-19T03:01:26.927Z,12
2018-05-19T03:01:53.118Z,8
2018-05-19T03:02:19.395Z,12
2018-05-19T03:02:45.603Z,12
2018-05-19T03:03:11.839Z,12
2018-05-19T03:03:38.025Z,12
2018-05-19T03:04:04.341Z,12
2018-05-19T03:04:30.529Z,16
2018-05-19T03:04:56.816Z,16
2018-05-19T03:05:23.100Z,16
2018-05-19T03:05:49.387Z,16
2018-05-19T03:06:15.685Z,20
2018-05-19T03:06:41.974Z,16
2018-05-19T03:07:08.158Z,20
2018-05-19T03:07:34.416Z,20
2018-05-19T03:08:00.748Z,20
2018-05-19T03:08:26.916Z,24
2018-05-19T03:08:53.041Z,24
2018-05-19T03:09:19.200Z,24
2018-05-19T03:09:45.345Z,24
2018-05-19T03:10:11.552Z,32
2018-05-19T03:10:37.688Z,32
2018-05-19T03:11:03.872Z,32
2018-05-19T03:11:30.010Z,36
2018-05-19T03:11:56.181Z,36
2018-05-19T03:12:22.341Z,40
2018-05-19T03:12:48.500Z,40
2018-05-19T03:13:14.669Z,44
2018-05-19T03:13:40.827Z,44
2018-05-19T03:14:06.985Z,44
2018-05-19T03:14:33.131Z,48
2018-05-19T03:14:59.269Z,48
2018-05-19T03:15:25.425Z,56
2018-05-19T03:15:51.556Z,56
2018-05-19T03:16:17.697Z,56
2018-05-19T03:16:43.884Z,60
2018-05-19T03:17:10.069Z,60
2018-05-19T03:17:36.187Z,64
2018-05-19T03:18:02.321Z,68
2018-05-19T03:18:28.482Z,64
2018-05-19T03:18:54.621Z,68
2018-05-19T03:19:20.759Z,72
2018-05-19T03:19:46.924Z,76
2018-05-19T03:20:13.082Z,76
2018-05-19T03:20:39.218Z,84
2018-05-19T03:21:05.361Z,84
2018-05-19T03:21:31.501Z,92
2018-05-19T03:21:57.640Z,96
2018-05-19T03:22:23.771Z,100
2018-05-19T03:22:49.907Z,100
2018-05-19T03:23:16.072Z,108
2018-05-19T03:23:42.205Z,116
2018-05-19T03:24:08.344Z,120
2018-05-19T03:24:34.479Z,124
2018-05-19T03:25:00.668Z,132
2018-05-19T03:25:26.834Z,136
2018-05-19T03:25:52.994Z,140
2018-05-19T03:26:19.139Z,148
2018-05-19T03:26:45.305Z,156
2018-05-19T03:27:11.416Z,160
2018-05-19T03:27:37.577Z,168
2018-05-19T03:28:03.712Z,172
2018-05-19T03:28:29.857Z,176
2018-05-19T03:28:56.017Z,184
2018-05-19T03:29:22.182Z,192
2018-05-19T03:29:48.311Z,200
2018-05-19T03:30:14.476Z,208
2018-05-19T03:30:40.690Z,212
2018-05-19T03:31:06.876Z,220
2018-05-19T03:31:33.064Z,228
2018-05-19T03:31:59.298Z,236
2018-05-19T03:32:25.463Z,244
2018-05-19T03:32:51.713Z,256
2018-05-19T03:33:17.820Z,268
2018-05-19T03:33:43.959Z,276
2018-05-19T03:34:10.147Z,288
2018-05-19T03:34:36.286Z,300
2018-05-19T03:35:02.498Z,312
2018-05-19T03:35:28.563Z,324
2018-05-19T03:35:54.752Z,336
2018-05-19T03:36:20.939Z,348
2018-05-19T03:36:47.081Z,360
2018-05-19T03:37:13.217Z,372
2018-05-19T03:37:39.367Z,380
2018-05-19T03:38:05.539Z,392
2018-05-19T03:38:31.682Z,400
2018-05-19T03:38:57.843Z,408
2018-05-19T03:39:24.011Z,420
2018-05-19T03:39:50.143Z,432
2018-05-19T03:40:16.292Z,440
2018-05-19T03:40:42.432Z,448
2018-05-19T03:41:08.575Z,460
2018-05-19T03:41:34.708Z,468
2018-05-19T03:42:00.840Z,480
2018-05-19T03:42:26.989Z,496
2018-05-19T03:42:53.125Z,504
2018-05-19T03:43:19.315Z,520
2018-05-19T03:43:45.453Z,532
2018-05-19T03:44:11.643Z,544
2018-05-19T03:44:37.798Z,560
2018-05-19T03:45:03.942Z,576
2018-05-19T03:45:30.077Z,592
2018-05-19T03:45:56.201Z,608
2018-05-19T03:46:22.382Z,620
2018-05-19T03:46:48.527Z,640
2018-05-19T03:47:14.659Z,656
2018-05-19T03:47:40.794Z,672
2018-05-19T03:48:06.930Z,684
2018-05-19T03:48:33.061Z,700
2018-05-19T03:48:59.229Z,712
2018-05-19T03:49:25.370Z,732
2018-05-19T03:49:51.506Z,744
2018-05-19T03:50:17.670Z,760
2018-05-19T03:50:43.808Z,776
2018-05-19T03:51:09.940Z,792
2018-05-19T03:51:36.084Z,804
2018-05-19T03:52:02.225Z,820
2018-05-19T03:52:28.362Z,836
2018-05-19T03:52:54.508Z,848
2018-05-19T03:53:20.635Z,864
2018-05-19T03:53:46.774Z,876
2018-05-19T03:54:12.909Z,892
2018-05-19T03:54:39.048Z,908
2018-05-19T03:55:05.189Z,928
2018-05-19T03:55:31.334Z,944
2018-05-19T03:55:57.500Z,964
2018-05-19T03:56:23.630Z,980
2018-05-19T03:56:49.767Z,1000
2018-05-19T03:57:15.909Z,1016
2018-05-19T03:57:42.050Z,1040
2018-05-19T03:58:08.179Z,1052
2018-05-19T03:58:34.340Z,1072
2018-05-19T03:59:00.508Z,1088
2018-05-19T03:59:26.642Z,1108
2018-05-19T03:59:52.806Z,1128
2018-05-19T04:00:18.947Z,1144
2018-05-19T04:00:45.086Z,1160
2018-05-19T04:01:11.224Z,1176
2018-05-19T04:01:37.381Z,1188
2018-05-19T04:02:03.522Z,1200
2018-05-19T04:02:29.683Z,1208
2018-05-19T04:02:55.823Z,1220
2018-05-19T04:03:21.959Z,1232
2018-05-19T04:03:48.093Z,1240
2018-05-19T04:04:14.230Z,1256
2018-05-19T04:04:40.391Z,1272
2018-05-19T04:05:06.531Z,1292
2018-05-19T04:05:32.686Z,1308
2018-05-19T04:05:58.828Z,1324
2018-05-19T04:06:24.957Z,1348
2018-05-19T04:06:51.097Z,1368
2018-05-19T04:07:17.232Z,1388
2018-05-19T04:07:43.386Z,1404
2018-05-19T04:08:09.568Z,1424
2018-05-19T04:08:35.704Z,1440
2018-05-19T04:09:01.840Z,1456
2018-05-19T04:09:27.981Z,1472
2018-05-19T04:09:54.123Z,1484
2018-05-19T04:10:20.266Z,1496
2018-05-19T04:10:46.401Z,1504
2018-05-19T04:11:12.550Z,1512
2018-05-19T04:11:38.702Z,1512
2018-05-19T04:12:04.843Z,1504
2018-05-19T04:12:30.973Z,1492
2018-05-19T04:12:57.111Z,1480
2018-05-19T04:13:23.251Z,1468
2018-05-19T04:13:49.396Z,1456
2018-05-19T04:14:15.545Z,1448
2018-05-19T04:14:41.689Z,1444
2018-05-19T04:15:07.846Z,1448
2018-05-19T04:15:34.006Z,1444
2018-05-19T04:16:00.166Z,1448
2018-05-19T04:16:26.309Z,1456
2018-05-19T04:16:52.462Z,1464
2018-05-19T04:17:18.640Z,1484
2018-05-19T04:17:44.768Z,1496
2018-05-19T04:18:10.912Z,1520
2018-05-19T04:18:37.048Z,1540
2018-05-19T04:19:03.194Z,1572
2018-05-19T04:19:29.359Z,1600
2018-05-19T04:19:55.537Z,1632
2018-05-19T04:20:21.682Z,1664
2018-05-19T04:20:47.817Z,1692
2018-05-19T04:21:13.953Z,1728
2018-05-19T04:21:40.097Z,1756
2018-05-19T04:22:06.283Z,1792
2018-05-19T04:22:32.419Z,1824
2018-05-19T04:22:58.549Z,1860
2018-05-19T04:23:24.687Z,1896
2018-05-19T04:23:50.850Z,1940
2018-05-19T04:24:16.983Z,1980
2018-05-19T04:24:43.124Z,2024
2018-05-19T04:25:09.300Z,2068
2018-05-19T04:25:35.478Z,2104
2018-05-19T04:26:01.641Z,2144
2018-05-19T04:26:27.871Z,2184
2018-05-19T04:26:53.917Z,2220
2018-05-19T04:27:20.069Z,2256
2018-05-19T04:27:46.235Z,2296
2018-05-19T04:28:12.372Z,2332
2018-05-19T04:28:38.509Z,2364
2018-05-19T04:29:04.654Z,2400
2018-05-19T04:29:30.822Z,2436
2018-05-19T04:29:56.956Z,2472
2018-05-19T04:30:23.111Z,2508
2018-05-19T04:30:49.251Z,2540
2018-05-19T04:31:15.412Z,2572
2018-05-19T04:31:41.548Z,2604
2018-05-19T04:32:07.686Z,2628
2018-05-19T04:32:33.844Z,2648
2018-05-19T04:33:00.006Z,2660
2018-05-19T04:33:26.138Z,2660
2018-05-19T04:33:52.283Z,2648
2018-05-19T04:34:18.411Z,2640
2018-05-19T04:34:44.544Z,2628
2018-05-19T04:35:10.710Z,2624
2018-05-19T04:35:36.842Z,2624
2018-05-19T04:36:02.989Z,2644
2018-05-19T04:36:29.151Z,2668
2018-05-19T04:36:55.291Z,2708
2018-05-19T04:37:21.480Z,2752
2018-05-19T04:37:47.615Z,2792
2018-05-19T04:38:13.756Z,2840
2018-05-19T04:38:39.892Z,2884
2018-05-19T04:39:06.020Z,2936
2018-05-19T04:39:32.162Z,2980
2018-05-19T04:39:58.298Z,3028
2018-05-19T04:40:24.441Z,3080
2018-05-19T04:40:50.584Z,3132
2018-05-19T04:41:16.750Z,3184
2018-05-19T04:41:42.872Z,3244
2018-05-19T04:42:09.010Z,3304
2018-05-19T04:42:35.144Z,3368
2018-05-19T04:43:01.307Z,3424
2018-05-19T04:43:27.439Z,3484
2018-05-19T04:43:53.582Z,3536
2018-05-19T04:44:19.724Z,3588
2018-05-19T04:44:45.892Z,3648
2018-05-19T04:45:12.050Z,3700
2018-05-19T04:45:38.214Z,3748
2018-05-19T04:46:04.348Z,3800
2018-05-19T04:46:30.487Z,3844
2018-05-19T04:46:56.621Z,3888
2018-05-19T04:47:22.818Z,3928
2018-05-19T04:47:48.977Z,3964
2018-05-19T04:48:15.119Z,3992
2018-05-19T04:48:41.291Z,4020
2018-05-19T04:49:07.456Z,4044
2018-05-19T04:49:33.583Z,4064
2018-05-19T04:49:59.722Z,4084
2018-05-19T04:50:25.863Z,4100
2018-05-19T04:50:51.999Z,4124
2018-05-19T04:51:18.141Z,4148
2018-05-19T04:51:44.274Z,4184
2018-05-19T04:52:10.421Z,4228
2018-05-19T04:52:36.551Z,4284
2018-05-19T04:53:02.692Z,4352
2018-05-19T04:53:28.827Z,4428
2018-05-19T04:53:54.995Z,4508
2018-05-19T04:54:21.126Z,4600
2018-05-19T04:54:47.275Z,4692
2018-05-19T04:55:13.412Z,4776
2018-05-19T04:55:39.547Z,4852
2018-05-19T04:56:05.690Z,4920
2018-05-19T04:56:31.818Z,4976
2018-05-19T04:56:58.191Z,5016
2018-05-19T04:57:24.134Z,5044
2018-05-19T04:57:50.268Z,5068
2018-05-19T04:58:16.412Z,5072
2018-05-19T04:58:42.553Z,5064
2018-05-19T04:59:08.713Z,5056
2018-05-19T04:59:34.847Z,5060
2018-05-19T05:00:00.988Z,5080
2018-05-19T05:00:27.124Z,5132
2018-05-19T05:00:53.268Z,5192
2018-05-19T05:01:19.425Z,5276
2018-05-19T05:01:45.570Z,5364
2018-05-19T05:02:11.754Z,5452
2018-05-19T05:02:37.895Z,5548
2018-05-19T05:03:04.034Z,5652
2018-05-19T05:03:30.171Z,5756
2018-05-19T05:03:56.420Z,5860
2018-05-19T05:04:22.480Z,5972
2018-05-19T05:04:48.637Z,6096
2018-05-19T05:05:14.770Z,6240
2018-05-19T05:05:40.913Z,6396
2018-05-19T05:06:07.066Z,6556
2018-05-19T05:06:33.205Z,6728
2018-05-19T05:06:59.344Z,6912
2018-05-19T05:07:25.482Z,7072
2018-05-19T05:07:51.616Z,7152
2018-05-19T05:08:17.759Z,7176
2018-05-19T05:08:43.899Z,7232
2018-05-19T05:09:10.042Z,7276
2018-05-19T05:09:36.177Z,7316
2018-05-19T05:10:02.334Z,7340
2018-05-19T05:10:28.475Z,7360
2018-05-19T05:10:54.622Z,7396
2018-05-19T05:11:20.763Z,7452
2018-05-19T05:11:46.901Z,7532
2018-05-19T05:12:13.039Z,7644
2018-05-19T05:12:39.176Z,7796
2018-05-19T05:13:05.311Z,7976
2018-05-19T05:13:31.450Z,8164
2018-05-19T05:13:57.644Z,8368
2018-05-19T05:14:23.808Z,8568
2018-05-19T05:14:49.972Z,8748
2018-05-19T05:15:16.106Z,8908
2018-05-19T05:15:42.253Z,9048
2018-05-19T05:16:08.386Z,9168
2018-05-19T05:16:34.528Z,9260
2018-05-19T05:17:00.695Z,9324
2018-05-19T05:17:26.862Z,9356
2018-05-19T05:17:53.002Z,9336
2018-05-19T05:18:19.135Z,9292
2018-05-19T05:18:45.295Z,9228
2018-05-19T05:19:11.435Z,9156
2018-05-19T05:19:37.571Z,9088
2018-05-19T05:20:03.716Z,9056
2018-05-19T05:20:29.852Z,9080
2018-05-19T05:20:55.987Z,9152
2018-05-19T05:21:22.125Z,9256
2018-05-19T05:21:48.261Z,9340
2018-05-19T05:22:14.404Z,9464
2018-05-19T05:22:40.548Z,9568
2018-05-19T05:23:06.678Z,9700
2018-05-19T05:23:32.821Z,9824
2018-05-19T05:23:58.964Z,9960
2018-05-19T05:24:25.128Z,10064
2018-05-19T05:24:51.269Z,10088
2018-05-19T05:25:17.406Z,10104
2018-05-19T05:25:43.550Z,10084
2018-05-19T05:26:09.708Z,10048
2018-05-19T05:26:35.845Z,10032
2018-05-19T05:27:02.058Z,10040
2018-05-19T05:27:28.139Z,10080
2018-05-19T05:27:54.273Z,10188
2018-05-19T05:28:20.417Z,10296
2018-05-19T05:28:46.584Z,10452
2018-05-19T05:29:12.717Z,10616
2018-05-19T05:29:38.855Z,10820
2018-05-19T05:30:05.018Z,11060
2018-05-19T05:30:31.155Z,11324
2018-05-19T05:30:57.307Z,11624
2018-05-19T05:31:23.446Z,12000
2018-05-19T05:31:49.581Z,12044
2018-05-19T05:32:15.746Z,12084
2018-05-19T05:32:41.881Z,12160
2018-05-19T05:33:08.024Z,12184
2018-05-19T05:33:34.158Z,12244
2018-05-19T05:34:00.323Z,12336
2018-05-19T05:34:26.455Z,12452
2018-05-19T05:34:52.630Z,12616
2018-05-19T05:35:18.769Z,12760
2018-05-19T05:35:44.931Z,12868
2018-05-19T05:36:11.104Z,12940
2018-05-19T05:36:37.244Z,12764
2018-05-19T05:37:03.374Z,12632
2018-05-19T05:37:29.507Z,12532
2018-05-19T05:37:55.648Z,12444
2018-05-19T05:38:21.815Z,12380
2018-05-19T05:38:47.958Z,12312
2018-05-19T05:39:14.118Z,12256
2018-05-19T05:39:40.273Z,12236
2018-05-19T05:40:06.414Z,12252
2018-05-19T05:40:32.551Z,12292
2018-05-19T05:40:58.686Z,12312
2018-05-19T05:41:24.826Z,12328
2018-05-19T05:41:50.971Z,12364
2018-05-19T05:42:17.107Z,12460
2018-05-19T05:42:43.277Z,12592
2018-05-19T05:43:09.525Z,12732
2018-05-19T05:43:35.574Z,12872
2018-05-19T05:44:01.713Z,13008
2018-05-19T05:44:27.851Z,13128
2018-05-19T05:44:53.983Z,13248
2018-05-19T05:45:20.122Z,13356
2018-05-19T05:45:46.260Z,13468
2018-05-19T05:46:12.451Z,13564
2018-05-19T05:46:38.590Z,13644
2018-05-19T05:47:04.747Z,13692
2018-05-19T05:47:30.895Z,13672
2018-05-19T05:47:57.027Z,13592
2018-05-19T05:48:23.168Z,13460
2018-05-19T05:48:49.313Z,13284
2018-05-19T05:49:15.450Z,13080
2018-05-19T05:49:41.580Z,12856
2018-05-19T05:50:07.790Z,12608
2018-05-19T05:50:33.856Z,12392
2018-05-19T05:50:59.995Z,12236
2018-05-19T05:51:26.130Z,12100
2018-05-19T05:51:52.271Z,11844
2018-05-19T05:52:18.446Z,11688
2018-05-19T05:52:44.546Z,11564
2018-05-19T05:53:10.688Z,11500
2018-05-19T05:53:36.824Z,11484
2018-05-19T05:54:03.000Z,11500
2018-05-19T05:54:29.131Z,11552
2018-05-19T05:54:55.275Z,11644
2018-05-19T05:55:21.433Z,11776
2018-05-19T05:55:47.581Z,11948
2018-05-19T05:56:13.729Z,12128
2018-05-19T05:56:39.872Z,12276
2018-05-19T05:57:06.007Z,12408
2018-05-19T05:57:32.141Z,12584
2018-05-19T05:57:58.282Z,12804
2018-05-19T05:58:24.421Z,13080
2018-05-19T05:58:50.585Z,13404
2018-05-19T05:59:16.734Z,13768
2018-05-19T05:59:42.982Z,14116
2018-05-19T06:00:09.047Z,14396
2018-05-19T06:00:35.186Z,14628
2018-05-19T06:01:01.351Z,14812
2018-05-19T06:01:27.489Z,14992
2018-05-19T06:01:53.654Z,15108
2018-05-19T06:02:19.794Z,15264
2018-05-19T06:02:45.931Z,15440
2018-05-19T06:03:12.075Z,15588
2018-05-19T06:03:38.211Z,15632
2018-05-19T06:04:04.360Z,15572
2018-05-19T06:04:30.519Z,15504
2018-05-19T06:04:56.658Z,15508
2018-05-19T06:05:22.822Z,15560
2018-05-19T06:05:48.962Z,15700
2018-05-19T06:06:15.125Z,15884
2018-05-19T06:06:41.269Z,16132
2018-05-19T06:07:07.407Z,16432